Seastreak New York — WDA4972 — position and weather

sailwx.info

Track history (hours):
 
Tides and Currents Weather Stations Pressure Air Temp Water Temp Dewpoint Dewpoint Depression Visibility Wind Speed Wind Dir Waves Ship Positions

Seastreak New York

Owner: CIRCLE NAVIGATION, NEW YORK, NY. More information available from US FCC via Universal Licensing System and Coast Guard Vessel Documentation Center.

Last reported at 2017-Sep-19 18:31 UTC. Time now 2017-Sep-19 18:48 UTC.
Position N 40°45' W 073°58'.

; draft 4.7 m.

Type: Passenger vessel. MMSI: 367347130.

Date/timePositionNaut miles runAvg speedWind from/ knotsBaromVisibWave heightAir tempDewpointWater temp
2017-Sep-19 18:31N 40°45' W 073°58'0 0.0
2017-Sep-19 17:59N 40°45' W 073°58'0 0.0
2017-Sep-19 17:31N 40°45' W 073°58'0 0.0
2017-Sep-19 17:00N 40°45' W 073°58'0 0.0
2017-Sep-19 16:29N 40°45' W 073°58'0 0.0
2017-Sep-19 16:00N 40°45' W 073°58'0 0.0
2017-Sep-19 15:30N 40°45' W 073°58'0 0.0
2017-Sep-19 15:00N 40°45' W 073°58'0 0.0
2017-Sep-19 14:31N 40°45' W 073°58'0 0.0
2017-Sep-19 14:00N 40°45' W 073°58'3 6.4
2017-Sep-19 13:30N 40°42' W 074°00'9 7.6
2017-Sep-19 12:23N 40°34' W 074°02'1130.1
2017-Sep-19 12:00N 40°45' W 073°58'612.1
2017-Sep-19 11:31N 40°39' W 074°02'15 1.3
2017-Sep-19 00:32N 40°25' W 073°60'0 4.9
2017-Sep-19 00:29N 40°25' W 074°00'1122.4
2017-Sep-18 23:59N 40°36' W 074°03'1020.0
2017-Sep-18 23:30N 40°45' W 073°58'510.5
2017-Sep-18 23:01N 40°40' W 074°01'1523.5
2017-Sep-18 22:22N 40°25' W 074°00'513.8
2017-Sep-18 21:58N 40°30' W 074°02'1227.0
2017-Sep-18 21:31N 40°42' W 074°00'3 5.7
2017-Sep-18 21:00N 40°45' W 073°58'817.2
2017-Sep-18 20:30N 40°37' W 074°03'1219.7
2017-Sep-18 19:55N 40°25' W 074°02'914.8
2017-Sep-18 19:18N 40°34' W 074°02'827.4
2017-Sep-18 19:00N 40°42' W 074°00'3 5.9
2017-Sep-18 18:30N 40°45' W 073°58'0 0.0
2017-Sep-18 18:00N 40°45' W 073°58'0 0.0
2017-Sep-18 17:30N 40°45' W 073°58'0 0.0
2017-Sep-18 17:00N 40°45' W 073°58'0 0.0
2017-Sep-18 16:30N 40°45' W 073°58'0 0.0
2017-Sep-18 16:00N 40°45' W 073°58'0 0.0
2017-Sep-18 15:31N 40°45' W 073°58'0 0.0
2017-Sep-18 15:00N 40°45' W 073°58'0 0.0
2017-Sep-18 14:30N 40°45' W 073°58'0 0.0
2017-Sep-18 14:00N 40°45' W 073°58'3 6.3
2017-Sep-18 13:31N 40°42' W 074°00'9 7.8
2017-Sep-18 12:23N 40°33' W 074°02'1230.7
2017-Sep-18 12:00N 40°45' W 073°58'510.3
2017-Sep-18 11:31N 40°40' W 074°01'5 0.5
2017-Sep-18 01:43N 40°35' W 074°02'731.9
2017-Sep-18 01:30N 40°42' W 074°00'3 5.7
2017-Sep-18 01:00N 40°44' W 073°58'1021.0
2017-Sep-18 00:30N 40°34' W 074°02'0 0.2
2017-Sep-17 23:30N 40°35' W 074°02'1021.1
2017-Sep-17 23:01N 40°44' W 073°58'1121.9
2017-Sep-17 22:30N 40°34' W 074°02'2 1.8
2017-Sep-17 21:33N 40°36' W 074°02'232.8
2017-Sep-17 21:30N 40°37' W 074°03'816.1
2017-Sep-17 21:00N 40°45' W 073°58'5 9.2
2017-Sep-17 20:30N 40°41' W 074°01'611.5
2017-Sep-17 20:00N 40°35' W 074°02'11 7.4
2017-Sep-17 18:33N 40°25' W 073°60'0 0.3
2017-Sep-17 18:27N 40°25' W 073°60'1021.8
2017-Sep-17 17:58N 40°35' W 074°02'817.4
2017-Sep-17 17:31N 40°42' W 073°59'3 5.4
2017-Sep-17 17:01N 40°40' W 074°01'1612.5
2017-Sep-17 15:46N 40°25' W 073°60'1121.6
2017-Sep-17 15:17N 40°35' W 074°02'727.3
2017-Sep-17 15:00N 40°42' W 074°00'3 5.8
2017-Sep-17 14:31N 40°45' W 073°58'5 9.7
2017-Sep-17 14:01N 40°40' W 074°01'5 3.0
2017-Sep-17 12:28N 40°36' W 074°03'919.8
2017-Sep-17 12:00N 40°45' W 073°58'2 4.1
2017-Sep-17 11:30N 40°43' W 073°59'18 3.7
2017-Sep-17 06:44N 40°25' W 074°02'0 0.0
2017-Sep-17 06:25N 40°25' W 074°02'0 0.0
2017-Sep-17 05:59N 40°25' W 074°02'0 0.0
2017-Sep-17 05:29N 40°25' W 074°02'0 0.0
2017-Sep-17 05:00N 40°25' W 074°02'0 0.0
2017-Sep-17 04:30N 40°25' W 074°02'0 0.0
2017-Sep-17 04:00N 40°25' W 074°02'0 0.0
2017-Sep-17 03:28N 40°25' W 074°02'0 0.0
2017-Sep-17 03:00N 40°25' W 074°02'0 0.0
2017-Sep-17 02:19N 40°25' W 074°02'0 0.0
2017-Sep-16 23:43N 40°25' W 074°02'0 0.0
2017-Sep-16 22:27N 40°25' W 074°02'0 0.0
2017-Sep-16 21:05N 40°25' W 074°02'0 0.0
2017-Sep-16 20:40N 40°25' W 074°02'0 0.0
2017-Sep-16 20:17N 40°25' W 074°02'0 0.0
2017-Sep-16 20:00N 40°25' W 074°02'0 0.0
2017-Sep-16 19:30N 40°25' W 074°02'0 0.0
2017-Sep-16 19:00N 40°25' W 074°02'0 0.0
2017-Sep-16 18:27N 40°25' W 074°02'0 0.0
2017-Sep-16 17:58N 40°25' W 074°02'0 0.0
2017-Sep-16 17:29N 40°25' W 074°02'0 0.0
2017-Sep-16 16:59N 40°25' W 074°02'0 0.0
2017-Sep-16 16:30N 40°25' W 074°02'0 0.0
2017-Sep-16 16:00N 40°25' W 074°02'0 0.0
2017-Sep-16 15:30N 40°25' W 074°02'0 0.0
2017-Sep-16 15:00N 40°25' W 074°02'0 0.0
2017-Sep-16 14:29N 40°25' W 074°02'0 0.0
2017-Sep-16 13:59N 40°25' W 074°02'0 0.0
2017-Sep-16 13:30N 40°25' W 074°02'0 0.0
2017-Sep-16 13:00N 40°25' W 074°02'0 0.0
2017-Sep-16 11:46N 40°25' W 074°02'0 0.0
2017-Sep-16 11:27N 40°25' W 074°02'0 0.0
2017-Sep-16 10:53N 40°25' W 074°02'0 0.0
2017-Sep-16 09:30N 40°25' W 074°02'0 0.0
2017-Sep-16 08:56N 40°25' W 074°02'0 0.0
2017-Sep-16 07:26N 40°25' W 074°02'0 0.0
2017-Sep-16 06:57N 40°25' W 074°02'0 0.0
2017-Sep-16 06:27N 40°25' W 074°02'0 0.0
2017-Sep-16 05:45N 40°25' W 074°02'0 0.0
2017-Sep-16 04:39N 40°25' W 074°02'0 0.0
2017-Sep-16 04:29N 40°25' W 074°02'0 0.0
2017-Sep-16 04:00N 40°25' W 074°02'0 0.0
2017-Sep-16 03:29N 40°25' W 074°02'0 0.0
2017-Sep-16 02:57N 40°25' W 074°02'0 0.0
2017-Sep-16 02:30N 40°25' W 074°02'0 0.0
2017-Sep-16 01:58N 40°25' W 074°02'2 1.9
2017-Sep-16 00:59N 40°25' W 073°60'1 2.1
2017-Sep-16 00:30N 40°25' W 074°01'1122.2
2017-Sep-16 00:01N 40°36' W 074°03'917.7
2017-Sep-15 23:30N 40°45' W 073°58'611.4
2017-Sep-15 23:01N 40°40' W 074°02'1524.5
2017-Sep-15 22:24N 40°25' W 073°60'1117.7
2017-Sep-15 21:48N 40°35' W 074°02'725.5
2017-Sep-15 21:30N 40°42' W 074°00'3 5.9
2017-Sep-15 21:00N 40°45' W 073°58'917.5
2017-Sep-15 20:30N 40°37' W 074°03'1221.7
2017-Sep-15 19:59N 40°25' W 074°02'914.7
2017-Sep-15 19:21N 40°34' W 074°03'823.1
2017-Sep-15 19:01N 40°42' W 074°00'3 5.9
2017-Sep-15 18:30N 40°45' W 073°58'0 0.0
2017-Sep-15 18:01N 40°45' W 073°58'0 0.0
2017-Sep-15 17:30N 40°45' W 073°58'0 0.0
2017-Sep-15 17:00N 40°45' W 073°58'0 0.0
2017-Sep-15 16:30N 40°45' W 073°58'0 0.0
2017-Sep-15 16:01N 40°45' W 073°58'0 0.0
2017-Sep-15 15:30N 40°45' W 073°58'0 0.0
2017-Sep-15 15:01N 40°45' W 073°58'0 0.0
2017-Sep-15 14:31N 40°45' W 073°58'0 0.0
2017-Sep-15 14:01N 40°45' W 073°58'3 5.9
2017-Sep-15 13:31N 40°42' W 074°00'1631.5
2017-Sep-15 13:00N 40°26' W 074°02'814.0
2017-Sep-15 12:27N 40°34' W 074°02'1124.9
2017-Sep-15 12:00N 40°45' W 073°58'510.8
2017-Sep-15 11:31N 40°40' W 074°01'1518.9
2017-Sep-15 10:44N 40°25' W 074°00'1 1.7
2017-Sep-15 10:13N 40°25' W 073°60'2 7.6
2017-Sep-15 09:59N 40°25' W 074°02'0 0.0
2017-Sep-15 09:26N 40°25' W 074°02'0 0.0
2017-Sep-15 08:59N 40°25' W 074°02'0 0.0
2017-Sep-15 08:30N 40°25' W 074°02'0 0.0
2017-Sep-15 08:00N 40°25' W 074°02'0 0.0
2017-Sep-15 07:30N 40°25' W 074°02'0 0.0
2017-Sep-15 07:00N 40°25' W 074°02'0 0.0
2017-Sep-15 06:30N 40°25' W 074°02'0 0.0
2017-Sep-15 05:59N 40°25' W 074°02'0 0.0
2017-Sep-15 05:30N 40°25' W 074°02'0 0.0
2017-Sep-15 04:20N 40°25' W 074°02'0 0.0
2017-Sep-15 03:56N 40°25' W 074°02'0 0.0
2017-Sep-15 03:30N 40°25' W 074°02'0 0.0
2017-Sep-15 02:56N 40°25' W 074°02'0 0.0
2017-Sep-15 02:28N 40°25' W 074°02'0 0.0
2017-Sep-15 01:59N 40°25' W 074°02'2 2.7
2017-Sep-15 01:18N 40°25' W 073°60'0 0.0
2017-Sep-15 00:58N 40°25' W 073°60'1 1.8
2017-Sep-15 00:30N 40°25' W 074°00'1121.4
2017-Sep-15 00:00N 40°36' W 074°03'1019.0
2017-Sep-14 23:30N 40°45' W 073°58'611.9
2017-Sep-14 23:01N 40°39' W 074°02'5 3.8
2017-Sep-14 21:47N 40°35' W 074°02'827.2
2017-Sep-14 21:30N 40°42' W 074°00'3 5.8
2017-Sep-14 21:00N 40°45' W 073°58'917.4
2017-Sep-14 20:30N 40°37' W 074°03'1216.8
2017-Sep-14 19:49N 40°25' W 074°00'918.5
2017-Sep-14 19:18N 40°35' W 074°02'825.7
2017-Sep-14 19:00N 40°42' W 074°00'3 5.9
2017-Sep-14 18:30N 40°45' W 073°58'0 0.0
2017-Sep-14 18:00N 40°45' W 073°58'0 0.0
2017-Sep-14 17:30N 40°45' W 073°58'0 0.0
2017-Sep-14 17:00N 40°45' W 073°58'0 0.0
2017-Sep-14 16:30N 40°45' W 073°58'0 0.0
2017-Sep-14 16:00N 40°45' W 073°58'0 0.0
2017-Sep-14 15:30N 40°45' W 073°58'0 0.1
2017-Sep-14 15:00N 40°45' W 073°58'0 0.1
2017-Sep-14 14:30N 40°45' W 073°58'0 0.0
2017-Sep-14 14:00N 40°45' W 073°58'4 7.7
2017-Sep-14 13:31N 40°41' W 074°01'1631.0
2017-Sep-14 13:00N 40°25' W 074°02'712.2
2017-Sep-14 12:24N 40°33' W 074°02'1231.5
2017-Sep-14 12:00N 40°45' W 073°58'510.3
2017-Sep-14 11:31N 40°40' W 074°01'1518.9
2017-Sep-14 10:43N 40°25' W 074°00'1 1.1
2017-Sep-14 10:09N 40°25' W 073°60'2 0.4
2017-Sep-14 05:38N 40°25' W 074°02'0 0.0
2017-Sep-14 05:24N 40°25' W 074°02'0 0.0
2017-Sep-14 03:01N 40°25' W 074°02'0 0.0
2017-Sep-14 02:51N 40°25' W 074°02'0 0.0
2017-Sep-14 02:10N 40°25' W 074°02'1 0.4
2017-Sep-14 00:25N 40°25' W 074°01'1023.4
2017-Sep-14 00:00N 40°35' W 074°03'1020.5
2017-Sep-13 23:30N 40°45' W 073°58'4 7.7
2017-Sep-13 23:01N 40°41' W 074°01'1630.0
2017-Sep-13 22:29N 40°26' W 074°01'912.4
2017-Sep-13 21:46N 40°35' W 074°02'829.4
2017-Sep-13 21:30N 40°42' W 074°00'3 5.9
2017-Sep-13 21:00N 40°45' W 073°58'816.3
2017-Sep-13 20:31N 40°37' W 074°03'1220.4
2017-Sep-13 19:55N 40°25' W 074°02'611.3
2017-Sep-13 19:22N 40°31' W 074°02'1130.8
2017-Sep-13 19:00N 40°42' W 074°00'3 5.8
2017-Sep-13 18:30N 40°44' W 073°58'20 9.4
2017-Sep-13 16:26N 40°25' W 074°02'0 0.0
2017-Sep-13 15:04N 40°25' W 074°02'0 0.0
2017-Sep-13 15:00N 40°25' W 074°02'2 4.0
2017-Sep-13 14:26N 40°27' W 074°02'1434.7
2017-Sep-13 14:01N 40°42' W 074°01'0 0.6
2017-Sep-13 13:31N 40°42' W 074°00'1632.3
2017-Sep-13 13:01N 40°26' W 074°02'3 5.5
2017-Sep-13 12:30N 40°29' W 074°02'1631.9
2017-Sep-13 12:00N 40°45' W 073°58'612.2
2017-Sep-13 11:31N 40°39' W 074°02'1425.2
2017-Sep-13 10:57N 40°25' W 074°02'2 4.1
2017-Sep-13 10:30N 40°25' W 073°60'0 0.1
2017-Sep-13 09:52N 40°25' W 073°60'2 5.1
2017-Sep-13 09:30N 40°25' W 074°02'0 0.0
2017-Sep-13 09:00N 40°25' W 074°02'0 0.0
2017-Sep-13 08:30N 40°25' W 074°02'0 0.0
2017-Sep-13 08:00N 40°25' W 074°02'0 0.0
2017-Sep-13 07:30N 40°25' W 074°02'0 0.0
2017-Sep-13 07:00N 40°25' W 074°02'0 0.0
2017-Sep-13 06:29N 40°25' W 074°02'0 0.0
2017-Sep-13 06:00N 40°25' W 074°02'0 0.0
2017-Sep-13 05:29N 40°25' W 074°02'0 0.0
2017-Sep-13 04:09N 40°25' W 074°02'0 0.0
2017-Sep-13 03:59N 40°25' W 074°02'0 0.0
2017-Sep-13 03:30N 40°25' W 074°02'0 0.0
2017-Sep-13 03:00N 40°25' W 074°02'0 0.0
2017-Sep-13 02:30N 40°25' W 074°02'0 0.0
2017-Sep-13 02:01N 40°25' W 074°02'0 0.0
2017-Sep-13 01:30N 40°25' W 074°02'2 3.2
2017-Sep-13 00:59N 40°25' W 073°60'0 0.0
2017-Sep-13 00:31N 40°25' W 073°60'1120.7
2017-Sep-13 00:00N 40°35' W 074°03'1020.4
2017-Sep-12 23:30N 40°45' W 073°58'4 7.5
2017-Sep-12 23:01N 40°41' W 074°01'1630.7
2017-Sep-12 22:30N 40°26' W 074°00'5 8.9
2017-Sep-12 21:54N 40°31' W 074°02'1129.1
2017-Sep-12 21:30N 40°42' W 074°00'3 5.9
2017-Sep-12 21:00N 40°45' W 073°58'917.8
2017-Sep-12 20:31N 40°36' W 074°02'1116.1
2017-Sep-12 19:50N 40°25' W 074°01'916.9
2017-Sep-12 19:16N 40°35' W 074°02'829.0
2017-Sep-12 19:00N 40°42' W 074°00'3 5.9
2017-Sep-12 18:31N 40°45' W 073°58'0 0.0
2017-Sep-12 18:00N 40°45' W 073°58'0 0.0
2017-Sep-12 17:31N 40°45' W 073°58'0 0.0
2017-Sep-12 17:00N 40°45' W 073°58'0 0.0
2017-Sep-12 16:31N 40°45' W 073°58'0 0.0
2017-Sep-12 16:01N 40°45' W 073°58'0 0.0
2017-Sep-12 15:31N 40°45' W 073°58'0 0.0
2017-Sep-12 15:01N 40°45' W 073°58'0 0.0
2017-Sep-12 14:30N 40°45' W 073°58'0 0.0
2017-Sep-12 14:01N 40°45' W 073°58'3 6.4
2017-Sep-12 13:31N 40°42' W 074°00'1729.0
2017-Sep-12 12:56N 40°25' W 074°02'916.1
2017-Sep-12 12:21N 40°34' W 074°03'1130.9
2017-Sep-12 12:01N 40°45' W 073°58'611.4
2017-Sep-12 11:31N 40°40' W 074°03'1526.9
2017-Sep-12 10:57N 40°25' W 074°02'2 2.5
2017-Sep-12 10:12N 40°25' W 073°60'0 0.2
2017-Sep-12 10:01N 40°25' W 073°60'0 0.0
2017-Sep-12 09:30N 40°25' W 073°60'0 0.0
2017-Sep-12 09:00N 40°25' W 073°60'0 0.0
2017-Sep-12 08:30N 40°25' W 073°60'0 0.0
2017-Sep-12 08:00N 40°25' W 073°60'0 0.0
2017-Sep-12 07:30N 40°25' W 073°60'0 0.0
2017-Sep-12 07:00N 40°25' W 073°60'0 0.0
2017-Sep-12 06:30N 40°25' W 073°60'0 0.0
2017-Sep-12 06:00N 40°25' W 073°60'0 0.0
2017-Sep-12 05:29N 40°25' W 073°60'0 0.0
2017-Sep-12 05:00N 40°25' W 073°60'0 0.0
2017-Sep-12 04:30N 40°25' W 073°60'0 0.0
2017-Sep-12 04:00N 40°25' W 073°60'0 0.0
2017-Sep-12 03:30N 40°25' W 073°60'0 0.0
2017-Sep-12 02:48N 40°25' W 073°60'0 0.0
2017-Sep-12 01:27N 40°25' W 073°60'0 0.0
2017-Sep-12 01:00N 40°25' W 073°60'0 0.1
2017-Sep-12 00:30N 40°25' W 073°60'1122.0
2017-Sep-11 23:59N 40°36' W 074°03'1020.2
2017-Sep-11 23:31N 40°45' W 073°58'3 5.4
2017-Sep-11 23:01N 40°42' W 073°60'1732.3
2017-Sep-11 22:29N 40°25' W 074°00'812.3
2017-Sep-11 21:49N 40°33' W 074°03'929.3
2017-Sep-11 21:30N 40°42' W 074°00'3 5.9
2017-Sep-11 21:00N 40°45' W 073°58'918.0
2017-Sep-11 20:31N 40°36' W 074°03'1115.8
2017-Sep-11 19:48N 40°25' W 074°00'917.8
2017-Sep-11 19:16N 40°35' W 074°02'829.6
2017-Sep-11 19:00N 40°42' W 074°00'3 5.7
2017-Sep-11 18:30N 40°45' W 073°58'0 0.0
2017-Sep-11 18:00N 40°45' W 073°58'0 0.0
2017-Sep-11 17:30N 40°45' W 073°58'0 0.0
2017-Sep-11 17:00N 40°45' W 073°58'0 0.0
2017-Sep-11 16:30N 40°45' W 073°58'0 0.0
2017-Sep-11 16:00N 40°45' W 073°58'0 0.0
2017-Sep-11 15:30N 40°45' W 073°58'0 0.0
2017-Sep-11 15:00N 40°45' W 073°58'0 0.0
2017-Sep-11 14:30N 40°45' W 073°58'0 0.0
2017-Sep-11 14:00N 40°45' W 073°58'3 5.8
2017-Sep-11 13:31N 40°42' W 074°00'8 6.8
2017-Sep-11 12:22N 40°35' W 074°03'1028.7
2017-Sep-11 12:00N 40°45' W 073°58'611.0
2017-Sep-11 11:31N 40°40' W 074°01'15 1.5
2017-Sep-11 01:39N 40°25' W 073°60'0 0.0
2017-Sep-11 01:30N 40°25' W 073°60'0 0.0
2017-Sep-11 00:55N 40°25' W 073°60'3 0.5
2017-Sep-10 18:07N 40°28' W 074°01'833.0
2017-Sep-10 17:53N 40°35' W 074°02'718.9
2017-Sep-10 17:30N 40°42' W 073°60'3 6.2
2017-Sep-10 17:00N 40°39' W 074°02'4 2.0
2017-Sep-10 15:14N 40°36' W 074°03'627.3
2017-Sep-10 15:00N 40°42' W 074°00'4 4.0
2017-Sep-10 14:01N 40°38' W 074°02'1414.5
2017-Sep-10 13:02N 40°25' W 073°60'324.4
2017-Sep-10 12:55N 40°28' W 074°01'923.1
2017-Sep-10 12:30N 40°37' W 074°03'816.6
2017-Sep-10 12:00N 40°45' W 073°58'3 5.2
2017-Sep-10 11:30N 40°42' W 073°60'1223.3
2017-Sep-10 11:00N 40°30' W 074°02'610.9
2017-Sep-10 10:26N 40°25' W 073°60'0 0.0
2017-Sep-10 09:56N 40°25' W 073°60'0 0.0
2017-Sep-10 09:30N 40°25' W 073°60'0 0.0
2017-Sep-10 08:58N 40°25' W 073°60'0 0.0
2017-Sep-10 08:29N 40°25' W 073°60'0 0.0
2017-Sep-10 07:52N 40°25' W 073°60'0 0.0
2017-Sep-10 07:11N 40°25' W 073°60'10 1.9
2017-Sep-10 01:47N 40°34' W 074°02'828.8
2017-Sep-10 01:30N 40°42' W 074°00'3 5.8
2017-Sep-10 01:00N 40°45' W 073°58'0 0.0
2017-Sep-10 00:31N 40°45' W 073°58'1122.7
2017-Sep-10 00:01N 40°34' W 074°02'914.1
2017-Sep-09 23:21N 40°25' W 073°60'1130.9
2017-Sep-09 23:00N 40°35' W 074°02'1020.1
2017-Sep-09 22:30N 40°45' W 073°58'1122.2
2017-Sep-09 22:00N 40°34' W 074°02'1 1.4
2017-Sep-09 21:06N 40°35' W 074°02'337.0
2017-Sep-09 21:00N 40°38' W 074°02'713.7
2017-Sep-09 20:30N 40°45' W 073°58'1020.1
2017-Sep-09 20:00N 40°35' W 074°03'  
Track history (hours):
 
Tides and Currents Weather Stations Pressure Air Temp Water Temp Dewpoint Dewpoint Depression Visibility Wind Speed Wind Dir Waves Ship Positions

Seastreak New York

Owner: CIRCLE NAVIGATION, NEW YORK, NY. More information available from US FCC via Universal Licensing System and Coast Guard Vessel Documentation Center.

Last reported at 2017-Sep-19 18:31 UTC. Time now 2017-Sep-19 18:48 UTC.
Position N 40°45' W 073°58'.

; draft 4.7 m.

Type: Passenger vessel. MMSI: 367347130.

Date/timePositionNaut miles runAvg speedWind from/ knotsBaromVisibWave heightAir tempDewpointWater temp
2017-Sep-19 18:31N 40°45' W 073°58'0 0.0
2017-Sep-19 17:59N 40°45' W 073°58'0 0.0
2017-Sep-19 17:31N 40°45' W 073°58'0 0.0
2017-Sep-19 17:00N 40°45' W 073°58'0 0.0
2017-Sep-19 16:29N 40°45' W 073°58'0 0.0
2017-Sep-19 16:00N 40°45' W 073°58'0 0.0
2017-Sep-19 15:30N 40°45' W 073°58'0 0.0
2017-Sep-19 15:00N 40°45' W 073°58'0 0.0
2017-Sep-19 14:31N 40°45' W 073°58'0 0.0
2017-Sep-19 14:00N 40°45' W 073°58'3 6.4
2017-Sep-19 13:30N 40°42' W 074°00'9 7.6
2017-Sep-19 12:23N 40°34' W 074°02'1130.1
2017-Sep-19 12:00N 40°45' W 073°58'612.1
2017-Sep-19 11:31N 40°39' W 074°02'15 1.3
2017-Sep-19 00:32N 40°25' W 073°60'0 4.9
2017-Sep-19 00:29N 40°25' W 074°00'1122.4
2017-Sep-18 23:59N 40°36' W 074°03'1020.0
2017-Sep-18 23:30N 40°45' W 073°58'510.5
2017-Sep-18 23:01N 40°40' W 074°01'1523.5
2017-Sep-18 22:22N 40°25' W 074°00'513.8
2017-Sep-18 21:58N 40°30' W 074°02'1227.0
2017-Sep-18 21:31N 40°42' W 074°00'3 5.7
2017-Sep-18 21:00N 40°45' W 073°58'817.2
2017-Sep-18 20:30N 40°37' W 074°03'1219.7
2017-Sep-18 19:55N 40°25' W 074°02'914.8
2017-Sep-18 19:18N 40°34' W 074°02'827.4
2017-Sep-18 19:00N 40°42' W 074°00'3 5.9
2017-Sep-18 18:30N 40°45' W 073°58'0 0.0
2017-Sep-18 18:00N 40°45' W 073°58'0 0.0
2017-Sep-18 17:30N 40°45' W 073°58'0 0.0
2017-Sep-18 17:00N 40°45' W 073°58'0 0.0
2017-Sep-18 16:30N 40°45' W 073°58'0 0.0
2017-Sep-18 16:00N 40°45' W 073°58'0 0.0
2017-Sep-18 15:31N 40°45' W 073°58'0 0.0
2017-Sep-18 15:00N 40°45' W 073°58'0 0.0
2017-Sep-18 14:30N 40°45' W 073°58'0 0.0
2017-Sep-18 14:00N 40°45' W 073°58'3 6.3
2017-Sep-18 13:31N 40°42' W 074°00'9 7.8
2017-Sep-18 12:23N 40°33' W 074°02'1230.7
2017-Sep-18 12:00N 40°45' W 073°58'510.3
2017-Sep-18 11:31N 40°40' W 074°01'5 0.5
2017-Sep-18 01:43N 40°35' W 074°02'731.9
2017-Sep-18 01:30N 40°42' W 074°00'3 5.7
2017-Sep-18 01:00N 40°44' W 073°58'1021.0
2017-Sep-18 00:30N 40°34' W 074°02'0 0.2
2017-Sep-17 23:30N 40°35' W 074°02'1021.1
2017-Sep-17 23:01N 40°44' W 073°58'1121.9
2017-Sep-17 22:30N 40°34' W 074°02'2 1.8
2017-Sep-17 21:33N 40°36' W 074°02'232.8
2017-Sep-17 21:30N 40°37' W 074°03'816.1
2017-Sep-17 21:00N 40°45' W 073°58'5 9.2
2017-Sep-17 20:30N 40°41' W 074°01'611.5
2017-Sep-17 20:00N 40°35' W 074°02'11 7.4
2017-Sep-17 18:33N 40°25' W 073°60'0 0.3
2017-Sep-17 18:27N 40°25' W 073°60'1021.8
2017-Sep-17 17:58N 40°35' W 074°02'817.4
2017-Sep-17 17:31N 40°42' W 073°59'3 5.4
2017-Sep-17 17:01N 40°40' W 074°01'1612.5
2017-Sep-17 15:46N 40°25' W 073°60'1121.6
2017-Sep-17 15:17N 40°35' W 074°02'727.3
2017-Sep-17 15:00N 40°42' W 074°00'3 5.8
2017-Sep-17 14:31N 40°45' W 073°58'5 9.7
2017-Sep-17 14:01N 40°40' W 074°01'5 3.0
2017-Sep-17 12:28N 40°36' W 074°03'919.8
2017-Sep-17 12:00N 40°45' W 073°58'2 4.1
2017-Sep-17 11:30N 40°43' W 073°59'18 3.7
2017-Sep-17 06:44N 40°25' W 074°02'0 0.0
2017-Sep-17 06:25N 40°25' W 074°02'0 0.0
2017-Sep-17 05:59N 40°25' W 074°02'0 0.0
2017-Sep-17 05:29N 40°25' W 074°02'0 0.0
2017-Sep-17 05:00N 40°25' W 074°02'0 0.0
2017-Sep-17 04:30N 40°25' W 074°02'0 0.0
2017-Sep-17 04:00N 40°25' W 074°02'0 0.0
2017-Sep-17 03:28N 40°25' W 074°02'0 0.0
2017-Sep-17 03:00N 40°25' W 074°02'0 0.0
2017-Sep-17 02:19N 40°25' W 074°02'0 0.0
2017-Sep-16 23:43N 40°25' W 074°02'0 0.0
2017-Sep-16 22:27N 40°25' W 074°02'0 0.0
2017-Sep-16 21:05N 40°25' W 074°02'0 0.0
2017-Sep-16 20:40N 40°25' W 074°02'0 0.0
2017-Sep-16 20:17N 40°25' W 074°02'0 0.0
2017-Sep-16 20:00N 40°25' W 074°02'0 0.0
2017-Sep-16 19:30N 40°25' W 074°02'0 0.0
2017-Sep-16 19:00N 40°25' W 074°02'0 0.0
2017-Sep-16 18:27N 40°25' W 074°02'0 0.0
2017-Sep-16 17:58N 40°25' W 074°02'0 0.0
2017-Sep-16 17:29N 40°25' W 074°02'0 0.0
2017-Sep-16 16:59N 40°25' W 074°02'0 0.0
2017-Sep-16 16:30N 40°25' W 074°02'0 0.0
2017-Sep-16 16:00N 40°25' W 074°02'0 0.0
2017-Sep-16 15:30N 40°25' W 074°02'0 0.0
2017-Sep-16 15:00N 40°25' W 074°02'0 0.0
2017-Sep-16 14:29N 40°25' W 074°02'0 0.0
2017-Sep-16 13:59N 40°25' W 074°02'0 0.0
2017-Sep-16 13:30N 40°25' W 074°02'0 0.0
2017-Sep-16 13:00N 40°25' W 074°02'0 0.0
2017-Sep-16 11:46N 40°25' W 074°02'0 0.0
2017-Sep-16 11:27N 40°25' W 074°02'0 0.0
2017-Sep-16 10:53N 40°25' W 074°02'0 0.0
2017-Sep-16 09:30N 40°25' W 074°02'0 0.0
2017-Sep-16 08:56N 40°25' W 074°02'0 0.0
2017-Sep-16 07:26N 40°25' W 074°02'0 0.0
2017-Sep-16 06:57N 40°25' W 074°02'0 0.0
2017-Sep-16 06:27N 40°25' W 074°02'0 0.0
2017-Sep-16 05:45N 40°25' W 074°02'0 0.0
2017-Sep-16 04:39N 40°25' W 074°02'0 0.0
2017-Sep-16 04:29N 40°25' W 074°02'0 0.0
2017-Sep-16 04:00N 40°25' W 074°02'0 0.0
2017-Sep-16 03:29N 40°25' W 074°02'0 0.0
2017-Sep-16 02:57N 40°25' W 074°02'0 0.0
2017-Sep-16 02:30N 40°25' W 074°02'0 0.0
2017-Sep-16 01:58N 40°25' W 074°02'2 1.9
2017-Sep-16 00:59N 40°25' W 073°60'1 2.1
2017-Sep-16 00:30N 40°25' W 074°01'1122.2
2017-Sep-16 00:01N 40°36' W 074°03'917.7
2017-Sep-15 23:30N 40°45' W 073°58'611.4
2017-Sep-15 23:01N 40°40' W 074°02'1524.5
2017-Sep-15 22:24N 40°25' W 073°60'1117.7
2017-Sep-15 21:48N 40°35' W 074°02'725.5
2017-Sep-15 21:30N 40°42' W 074°00'3 5.9
2017-Sep-15 21:00N 40°45' W 073°58'917.5
2017-Sep-15 20:30N 40°37' W 074°03'1221.7
2017-Sep-15 19:59N 40°25' W 074°02'914.7
2017-Sep-15 19:21N 40°34' W 074°03'823.1
2017-Sep-15 19:01N 40°42' W 074°00'3 5.9
2017-Sep-15 18:30N 40°45' W 073°58'0 0.0
2017-Sep-15 18:01N 40°45' W 073°58'0 0.0
2017-Sep-15 17:30N 40°45' W 073°58'0 0.0
2017-Sep-15 17:00N 40°45' W 073°58'0 0.0
2017-Sep-15 16:30N 40°45' W 073°58'0 0.0
2017-Sep-15 16:01N 40°45' W 073°58'0 0.0
2017-Sep-15 15:30N 40°45' W 073°58'0 0.0
2017-Sep-15 15:01N 40°45' W 073°58'0 0.0
2017-Sep-15 14:31N 40°45' W 073°58'0 0.0
2017-Sep-15 14:01N 40°45' W 073°58'3 5.9
2017-Sep-15 13:31N 40°42' W 074°00'1631.5
2017-Sep-15 13:00N 40°26' W 074°02'814.0
2017-Sep-15 12:27N 40°34' W 074°02'1124.9
2017-Sep-15 12:00N 40°45' W 073°58'510.8
2017-Sep-15 11:31N 40°40' W 074°01'1518.9
2017-Sep-15 10:44N 40°25' W 074°00'1 1.7
2017-Sep-15 10:13N 40°25' W 073°60'2 7.6
2017-Sep-15 09:59N 40°25' W 074°02'0 0.0
2017-Sep-15 09:26N 40°25' W 074°02'0 0.0
2017-Sep-15 08:59N 40°25' W 074°02'0 0.0
2017-Sep-15 08:30N 40°25' W 074°02'0 0.0
2017-Sep-15 08:00N 40°25' W 074°02'0 0.0
2017-Sep-15 07:30N 40°25' W 074°02'0 0.0
2017-Sep-15 07:00N 40°25' W 074°02'0 0.0
2017-Sep-15 06:30N 40°25' W 074°02'0 0.0
2017-Sep-15 05:59N 40°25' W 074°02'0 0.0
2017-Sep-15 05:30N 40°25' W 074°02'0 0.0
2017-Sep-15 04:20N 40°25' W 074°02'0 0.0
2017-Sep-15 03:56N 40°25' W 074°02'0 0.0
2017-Sep-15 03:30N 40°25' W 074°02'0 0.0
2017-Sep-15 02:56N 40°25' W 074°02'0 0.0
2017-Sep-15 02:28N 40°25' W 074°02'0 0.0
2017-Sep-15 01:59N 40°25' W 074°02'2 2.7
2017-Sep-15 01:18N 40°25' W 073°60'0 0.0
2017-Sep-15 00:58N 40°25' W 073°60'1 1.8
2017-Sep-15 00:30N 40°25' W 074°00'1121.4
2017-Sep-15 00:00N 40°36' W 074°03'1019.0
2017-Sep-14 23:30N 40°45' W 073°58'611.9
2017-Sep-14 23:01N 40°39' W 074°02'5 3.8
2017-Sep-14 21:47N 40°35' W 074°02'827.2
2017-Sep-14 21:30N 40°42' W 074°00'3 5.8
2017-Sep-14 21:00N 40°45' W 073°58'917.4
2017-Sep-14 20:30N 40°37' W 074°03'1216.8
2017-Sep-14 19:49N 40°25' W 074°00'918.5
2017-Sep-14 19:18N 40°35' W 074°02'825.7
2017-Sep-14 19:00N 40°42' W 074°00'3 5.9
2017-Sep-14 18:30N 40°45' W 073°58'0 0.0
2017-Sep-14 18:00N 40°45' W 073°58'0 0.0
2017-Sep-14 17:30N 40°45' W 073°58'0 0.0
2017-Sep-14 17:00N 40°45' W 073°58'0 0.0
2017-Sep-14 16:30N 40°45' W 073°58'0 0.0
2017-Sep-14 16:00N 40°45' W 073°58'0 0.0
2017-Sep-14 15:30N 40°45' W 073°58'0 0.1
2017-Sep-14 15:00N 40°45' W 073°58'0 0.1
2017-Sep-14 14:30N 40°45' W 073°58'0 0.0
2017-Sep-14 14:00N 40°45' W 073°58'4 7.7
2017-Sep-14 13:31N 40°41' W 074°01'1631.0
2017-Sep-14 13:00N 40°25' W 074°02'712.2
2017-Sep-14 12:24N 40°33' W 074°02'1231.5
2017-Sep-14 12:00N 40°45' W 073°58'510.3
2017-Sep-14 11:31N 40°40' W 074°01'1518.9
2017-Sep-14 10:43N 40°25' W 074°00'1 1.1
2017-Sep-14 10:09N 40°25' W 073°60'2 0.4
2017-Sep-14 05:38N 40°25' W 074°02'0 0.0
2017-Sep-14 05:24N 40°25' W 074°02'0 0.0
2017-Sep-14 03:01N 40°25' W 074°02'0 0.0
2017-Sep-14 02:51N 40°25' W 074°02'0 0.0
2017-Sep-14 02:10N 40°25' W 074°02'1 0.4
2017-Sep-14 00:25N 40°25' W 074°01'1023.4
2017-Sep-14 00:00N 40°35' W 074°03'1020.5
2017-Sep-13 23:30N 40°45' W 073°58'4 7.7
2017-Sep-13 23:01N 40°41' W 074°01'1630.0
2017-Sep-13 22:29N 40°26' W 074°01'912.4
2017-Sep-13 21:46N 40°35' W 074°02'829.4
2017-Sep-13 21:30N 40°42' W 074°00'3 5.9
2017-Sep-13 21:00N 40°45' W 073°58'816.3
2017-Sep-13 20:31N 40°37' W 074°03'1220.4
2017-Sep-13 19:55N 40°25' W 074°02'611.3
2017-Sep-13 19:22N 40°31' W 074°02'1130.8
2017-Sep-13 19:00N 40°42' W 074°00'3 5.8
2017-Sep-13 18:30N 40°44' W 073°58'20 9.4
2017-Sep-13 16:26N 40°25' W 074°02'0 0.0
2017-Sep-13 15:04N 40°25' W 074°02'0 0.0
2017-Sep-13 15:00N 40°25' W 074°02'2 4.0
2017-Sep-13 14:26N 40°27' W 074°02'1434.7
2017-Sep-13 14:01N 40°42' W 074°01'0 0.6
2017-Sep-13 13:31N 40°42' W 074°00'1632.3
2017-Sep-13 13:01N 40°26' W 074°02'3 5.5
2017-Sep-13 12:30N 40°29' W 074°02'1631.9
2017-Sep-13 12:00N 40°45' W 073°58'612.2
2017-Sep-13 11:31N 40°39' W 074°02'1425.2
2017-Sep-13 10:57N 40°25' W 074°02'2 4.1
2017-Sep-13 10:30N 40°25' W 073°60'0 0.1
2017-Sep-13 09:52N 40°25' W 073°60'2 5.1
2017-Sep-13 09:30N 40°25' W 074°02'0 0.0
2017-Sep-13 09:00N 40°25' W 074°02'0 0.0
2017-Sep-13 08:30N 40°25' W 074°02'0 0.0
2017-Sep-13 08:00N 40°25' W 074°02'0 0.0
2017-Sep-13 07:30N 40°25' W 074°02'0 0.0
2017-Sep-13 07:00N 40°25' W 074°02'0 0.0
2017-Sep-13 06:29N 40°25' W 074°02'0 0.0
2017-Sep-13 06:00N 40°25' W 074°02'0 0.0
2017-Sep-13 05:29N 40°25' W 074°02'0 0.0
2017-Sep-13 04:09N 40°25' W 074°02'0 0.0
2017-Sep-13 03:59N 40°25' W 074°02'0 0.0
2017-Sep-13 03:30N 40°25' W 074°02'0 0.0
2017-Sep-13 03:00N 40°25' W 074°02'0 0.0
2017-Sep-13 02:30N 40°25' W 074°02'0 0.0
2017-Sep-13 02:01N 40°25' W 074°02'0 0.0
2017-Sep-13 01:30N 40°25' W 074°02'2 3.2
2017-Sep-13 00:59N 40°25' W 073°60'0 0.0
2017-Sep-13 00:31N 40°25' W 073°60'1120.7
2017-Sep-13 00:00N 40°35' W 074°03'1020.4
2017-Sep-12 23:30N 40°45' W 073°58'4 7.5
2017-Sep-12 23:01N 40°41' W 074°01'1630.7
2017-Sep-12 22:30N 40°26' W 074°00'5 8.9
2017-Sep-12 21:54N 40°31' W 074°02'1129.1
2017-Sep-12 21:30N 40°42' W 074°00'3 5.9
2017-Sep-12 21:00N 40°45' W 073°58'917.8
2017-Sep-12 20:31N 40°36' W 074°02'1116.1
2017-Sep-12 19:50N 40°25' W 074°01'916.9
2017-Sep-12 19:16N 40°35' W 074°02'829.0
2017-Sep-12 19:00N 40°42' W 074°00'3 5.9
2017-Sep-12 18:31N 40°45' W 073°58'0 0.0
2017-Sep-12 18:00N 40°45' W 073°58'0 0.0
2017-Sep-12 17:31N 40°45' W 073°58'0 0.0
2017-Sep-12 17:00N 40°45' W 073°58'0 0.0
2017-Sep-12 16:31N 40°45' W 073°58'0 0.0
2017-Sep-12 16:01N 40°45' W 073°58'0 0.0
2017-Sep-12 15:31N 40°45' W 073°58'0 0.0
2017-Sep-12 15:01N 40°45' W 073°58'0 0.0
2017-Sep-12 14:30N 40°45' W 073°58'0 0.0
2017-Sep-12 14:01N 40°45' W 073°58'3 6.4
2017-Sep-12 13:31N 40°42' W 074°00'1729.0
2017-Sep-12 12:56N 40°25' W 074°02'916.1
2017-Sep-12 12:21N 40°34' W 074°03'1130.9
2017-Sep-12 12:01N 40°45' W 073°58'611.4
2017-Sep-12 11:31N 40°40' W 074°03'1526.9
2017-Sep-12 10:57N 40°25' W 074°02'2 2.5
2017-Sep-12 10:12N 40°25' W 073°60'0 0.2
2017-Sep-12 10:01N 40°25' W 073°60'0 0.0
2017-Sep-12 09:30N 40°25' W 073°60'0 0.0
2017-Sep-12 09:00N 40°25' W 073°60'0 0.0
2017-Sep-12 08:30N 40°25' W 073°60'0 0.0
2017-Sep-12 08:00N 40°25' W 073°60'0 0.0
2017-Sep-12 07:30N 40°25' W 073°60'0 0.0
2017-Sep-12 07:00N 40°25' W 073°60'0 0.0
2017-Sep-12 06:30N 40°25' W 073°60'0 0.0
2017-Sep-12 06:00N 40°25' W 073°60'0 0.0
2017-Sep-12 05:29N 40°25' W 073°60'0 0.0
2017-Sep-12 05:00N 40°25' W 073°60'0 0.0
2017-Sep-12 04:30N 40°25' W 073°60'0 0.0
2017-Sep-12 04:00N 40°25' W 073°60'0 0.0
2017-Sep-12 03:30N 40°25' W 073°60'0 0.0
2017-Sep-12 02:48N 40°25' W 073°60'0 0.0
2017-Sep-12 01:27N 40°25' W 073°60'0 0.0
2017-Sep-12 01:00N 40°25' W 073°60'0 0.1
2017-Sep-12 00:30N 40°25' W 073°60'1122.0
2017-Sep-11 23:59N 40°36' W 074°03'1020.2
2017-Sep-11 23:31N 40°45' W 073°58'3 5.4
2017-Sep-11 23:01N 40°42' W 073°60'1732.3
2017-Sep-11 22:29N 40°25' W 074°00'812.3
2017-Sep-11 21:49N 40°33' W 074°03'929.3
2017-Sep-11 21:30N 40°42' W 074°00'3 5.9
2017-Sep-11 21:00N 40°45' W 073°58'918.0
2017-Sep-11 20:31N 40°36' W 074°03'1115.8
2017-Sep-11 19:48N 40°25' W 074°00'917.8
2017-Sep-11 19:16N 40°35' W 074°02'829.6
2017-Sep-11 19:00N 40°42' W 074°00'3 5.7
2017-Sep-11 18:30N 40°45' W 073°58'0 0.0
2017-Sep-11 18:00N 40°45' W 073°58'0 0.0
2017-Sep-11 17:30N 40°45' W 073°58'0 0.0
2017-Sep-11 17:00N 40°45' W 073°58'0 0.0
2017-Sep-11 16:30N 40°45' W 073°58'0 0.0
2017-Sep-11 16:00N 40°45' W 073°58'0 0.0
2017-Sep-11 15:30N 40°45' W 073°58'0 0.0
2017-Sep-11 15:00N 40°45' W 073°58'0 0.0
2017-Sep-11 14:30N 40°45' W 073°58'0 0.0
2017-Sep-11 14:00N 40°45' W 073°58'3 5.8
2017-Sep-11 13:31N 40°42' W 074°00'8 6.8
2017-Sep-11 12:22N 40°35' W 074°03'1028.7
2017-Sep-11 12:00N 40°45' W 073°58'611.0
2017-Sep-11 11:31N 40°40' W 074°01'15 1.5
2017-Sep-11 01:39N 40°25' W 073°60'0 0.0
2017-Sep-11 01:30N 40°25' W 073°60'0 0.0
2017-Sep-11 00:55N 40°25' W 073°60'3 0.5
2017-Sep-10 18:07N 40°28' W 074°01'833.0
2017-Sep-10 17:53N 40°35' W 074°02'718.9
2017-Sep-10 17:30N 40°42' W 073°60'3 6.2
2017-Sep-10 17:00N 40°39' W 074°02'4 2.0
2017-Sep-10 15:14N 40°36' W 074°03'627.3
2017-Sep-10 15:00N 40°42' W 074°00'4 4.0
2017-Sep-10 14:01N 40°38' W 074°02'1414.5
2017-Sep-10 13:02N 40°25' W 073°60'324.4
2017-Sep-10 12:55N 40°28' W 074°01'923.1
2017-Sep-10 12:30N 40°37' W 074°03'816.6
2017-Sep-10 12:00N 40°45' W 073°58'3 5.2
2017-Sep-10 11:30N 40°42' W 073°60'1223.3
2017-Sep-10 11:00N 40°30' W 074°02'610.9
2017-Sep-10 10:26N 40°25' W 073°60'0 0.0
2017-Sep-10 09:56N 40°25' W 073°60'0 0.0
2017-Sep-10 09:30N 40°25' W 073°60'0 0.0
2017-Sep-10 08:58N 40°25' W 073°60'0 0.0
2017-Sep-10 08:29N 40°25' W 073°60'0 0.0
2017-Sep-10 07:52N 40°25' W 073°60'0 0.0
2017-Sep-10 07:11N 40°25' W 073°60'10 1.9
2017-Sep-10 01:47N 40°34' W 074°02'828.8
2017-Sep-10 01:30N 40°42' W 074°00'3 5.8
2017-Sep-10 01:00N 40°45' W 073°58'0 0.0
2017-Sep-10 00:31N 40°45' W 073°58'1122.7
2017-Sep-10 00:01N 40°34' W 074°02'914.1
2017-Sep-09 23:21N 40°25' W 073°60'1130.9
2017-Sep-09 23:00N 40°35' W 074°02'1020.1
2017-Sep-09 22:30N 40°45' W 073°58'1122.2
2017-Sep-09 22:00N 40°34' W 074°02'1 1.4
2017-Sep-09 21:06N 40°35' W 074°02'337.0
2017-Sep-09 21:00N 40°38' W 074°02'713.7
2017-Sep-09 20:30N 40°45' W 073°58'1020.1
2017-Sep-09 20:00N 40°35' W 074°03'  

Dump ship's entire track history